<?xml version="1.0" encoding="UTF-8" standalone="no" ?>
<gpx xmlns="http://www.topografix.com/GPX/1/1" xmlns:xsi="http://www.w3.org/2001/XMLSchema-instance" xsi:schemaLocation="http://www.topografix.com/GPX/1/1 http://www.topografix.com/GPX/1/1/gpx.xsd" version="1.1" creator="VisuGPX - https://www.visugpx.com">
  <metadata>
    <name>Marnes-la Coquette - Parc de Saint Cloud</name>
    <desc><![CDATA[Parcours Marche Nordique de 9 Km]]></desc>
  </metadata>
  <trk>
    <name><![CDATA[Marnes-la-Coquette_RB 001]]></name>
    <trkseg>
      <trkpt lat="48.8353" lon="2.18503">
        <ele>109.22</ele>
        <time>2022-12-08T08:26:59Z</time>
      </trkpt>
      <trkpt lat="48.8353" lon="2.18504">
        <ele>109.22</ele>
        <time>2022-12-08T08:27:00Z</time>
      </trkpt>
      <trkpt lat="48.83529" lon="2.18504">
        <ele>114.47</ele>
        <time>2022-12-08T08:27:04Z</time>
      </trkpt>
      <trkpt lat="48.83528" lon="2.18505">
        <ele>114.47</ele>
        <time>2022-12-08T08:27:05Z</time>
      </trkpt>
      <trkpt lat="48.83527" lon="2.18505">
        <ele>114.47</ele>
        <time>2022-12-08T08:27:07Z</time>
      </trkpt>
      <trkpt lat="48.83521" lon="2.18496">
        <ele>113.72</ele>
        <time>2022-12-08T08:27:22Z</time>
      </trkpt>
      <trkpt lat="48.8352" lon="2.18495">
        <ele>114.13</ele>
        <time>2022-12-08T08:27:43Z</time>
      </trkpt>
      <trkpt lat="48.83521" lon="2.18493">
        <ele>114.24</ele>
        <time>2022-12-08T08:28:09Z</time>
      </trkpt>
      <trkpt lat="48.83521" lon="2.18494">
        <ele>114.06</ele>
        <time>2022-12-08T08:28:29Z</time>
      </trkpt>
      <trkpt lat="48.83518" lon="2.18497">
        <ele>113.91</ele>
        <time>2022-12-08T08:28:43Z</time>
      </trkpt>
      <trkpt lat="48.83519" lon="2.18497">
        <ele>114.4</ele>
        <time>2022-12-08T08:29:00Z</time>
      </trkpt>
      <trkpt lat="48.83518" lon="2.185">
        <ele>114.02</ele>
        <time>2022-12-08T08:29:15Z</time>
      </trkpt>
      <trkpt lat="48.83519" lon="2.18494">
        <ele>113.89</ele>
        <time>2022-12-08T08:29:30Z</time>
      </trkpt>
      <trkpt lat="48.83519" lon="2.18498">
        <ele>113.54</ele>
        <time>2022-12-08T08:29:44Z</time>
      </trkpt>
      <trkpt lat="48.83516" lon="2.18498">
        <ele>114.06</ele>
        <time>2022-12-08T08:29:56Z</time>
      </trkpt>
      <trkpt lat="48.83514" lon="2.18496">
        <ele>113.84</ele>
        <time>2022-12-08T08:30:12Z</time>
      </trkpt>
      <trkpt lat="48.83512" lon="2.18496">
        <ele>114.28</ele>
        <time>2022-12-08T08:30:22Z</time>
      </trkpt>
      <trkpt lat="48.83516" lon="2.18499">
        <ele>113.82</ele>
        <time>2022-12-08T08:30:38Z</time>
      </trkpt>
      <trkpt lat="48.83516" lon="2.18486">
        <ele>114.55</ele>
        <time>2022-12-08T08:30:54Z</time>
      </trkpt>
      <trkpt lat="48.83516" lon="2.18478">
        <ele>114.91</ele>
        <time>2022-12-08T08:31:08Z</time>
      </trkpt>
      <trkpt lat="48.83515" lon="2.18459">
        <ele>115.85</ele>
        <time>2022-12-08T08:31:24Z</time>
      </trkpt>
      <trkpt lat="48.83509" lon="2.18436">
        <ele>117.03</ele>
        <time>2022-12-08T08:31:39Z</time>
      </trkpt>
      <trkpt lat="48.83497" lon="2.18405">
        <ele>118.37</ele>
        <time>2022-12-08T08:31:56Z</time>
      </trkpt>
      <trkpt lat="48.8349" lon="2.18379">
        <ele>118.48</ele>
        <time>2022-12-08T08:32:10Z</time>
      </trkpt>
      <trkpt lat="48.83488" lon="2.18364">
        <ele>119.36</ele>
        <time>2022-12-08T08:32:18Z</time>
      </trkpt>
      <trkpt lat="48.83485" lon="2.18332">
        <ele>120.02</ele>
        <time>2022-12-08T08:32:34Z</time>
      </trkpt>
      <trkpt lat="48.8348" lon="2.18296">
        <ele>120.61</ele>
        <time>2022-12-08T08:32:49Z</time>
      </trkpt>
      <trkpt lat="48.83482" lon="2.18288">
        <ele>120.43</ele>
        <time>2022-12-08T08:32:52Z</time>
      </trkpt>
      <trkpt lat="48.83485" lon="2.18273">
        <ele>119.99</ele>
        <time>2022-12-08T08:33:02Z</time>
      </trkpt>
      <trkpt lat="48.83485" lon="2.18254">
        <ele>120</ele>
        <time>2022-12-08T08:33:10Z</time>
      </trkpt>
      <trkpt lat="48.83487" lon="2.18237">
        <ele>119.99</ele>
        <time>2022-12-08T08:33:16Z</time>
      </trkpt>
      <trkpt lat="48.83488" lon="2.18219">
        <ele>119.24</ele>
        <time>2022-12-08T08:33:25Z</time>
      </trkpt>
      <trkpt lat="48.83493" lon="2.1819">
        <ele>119.3</ele>
        <time>2022-12-08T08:33:40Z</time>
      </trkpt>
      <trkpt lat="48.83494" lon="2.1816">
        <ele>118.59</ele>
        <time>2022-12-08T08:33:55Z</time>
      </trkpt>
      <trkpt lat="48.83494" lon="2.18134">
        <ele>118.45</ele>
        <time>2022-12-08T08:34:09Z</time>
      </trkpt>
      <trkpt lat="48.83491" lon="2.18103">
        <ele>117.88</ele>
        <time>2022-12-08T08:34:23Z</time>
      </trkpt>
      <trkpt lat="48.83482" lon="2.18073">
        <ele>117.91</ele>
        <time>2022-12-08T08:34:37Z</time>
      </trkpt>
      <trkpt lat="48.83478" lon="2.18055">
        <ele>117.27</ele>
        <time>2022-12-08T08:34:46Z</time>
      </trkpt>
      <trkpt lat="48.83476" lon="2.18036">
        <ele>117.14</ele>
        <time>2022-12-08T08:34:57Z</time>
      </trkpt>
      <trkpt lat="48.83474" lon="2.18028">
        <ele>117.66</ele>
        <time>2022-12-08T08:35:01Z</time>
      </trkpt>
      <trkpt lat="48.83472" lon="2.18024">
        <ele>117.29</ele>
        <time>2022-12-08T08:35:03Z</time>
      </trkpt>
      <trkpt lat="48.83464" lon="2.17994">
        <ele>116.41</ele>
        <time>2022-12-08T08:35:17Z</time>
      </trkpt>
      <trkpt lat="48.83459" lon="2.17973">
        <ele>116.6</ele>
        <time>2022-12-08T08:35:27Z</time>
      </trkpt>
      <trkpt lat="48.83452" lon="2.1795">
        <ele>115.75</ele>
        <time>2022-12-08T08:35:38Z</time>
      </trkpt>
      <trkpt lat="48.83443" lon="2.17932">
        <ele>115.12</ele>
        <time>2022-12-08T08:35:51Z</time>
      </trkpt>
      <trkpt lat="48.83432" lon="2.17906">
        <ele>115.45</ele>
        <time>2022-12-08T08:36:07Z</time>
      </trkpt>
      <trkpt lat="48.83421" lon="2.1788">
        <ele>116.19</ele>
        <time>2022-12-08T08:36:22Z</time>
      </trkpt>
      <trkpt lat="48.83418" lon="2.17871">
        <ele>116.42</ele>
        <time>2022-12-08T08:36:26Z</time>
      </trkpt>
      <trkpt lat="48.83411" lon="2.17841">
        <ele>116.88</ele>
        <time>2022-12-08T08:36:41Z</time>
      </trkpt>
      <trkpt lat="48.83408" lon="2.17813">
        <ele>116.01</ele>
        <time>2022-12-08T08:36:52Z</time>
      </trkpt>
      <trkpt lat="48.83408" lon="2.17786">
        <ele>115.67</ele>
        <time>2022-12-08T08:37:06Z</time>
      </trkpt>
      <trkpt lat="48.834" lon="2.17758">
        <ele>115.09</ele>
        <time>2022-12-08T08:37:21Z</time>
      </trkpt>
      <trkpt lat="48.83388" lon="2.17732">
        <ele>114.9</ele>
        <time>2022-12-08T08:37:36Z</time>
      </trkpt>
      <trkpt lat="48.83375" lon="2.177">
        <ele>114.6</ele>
        <time>2022-12-08T08:37:53Z</time>
      </trkpt>
      <trkpt lat="48.83365" lon="2.17679">
        <ele>114.78</ele>
        <time>2022-12-08T08:38:05Z</time>
      </trkpt>
      <trkpt lat="48.83359" lon="2.17655">
        <ele>115.08</ele>
        <time>2022-12-08T08:38:18Z</time>
      </trkpt>
      <trkpt lat="48.83353" lon="2.17627">
        <ele>114.86</ele>
        <time>2022-12-08T08:38:33Z</time>
      </trkpt>
      <trkpt lat="48.83352" lon="2.17617">
        <ele>114.1</ele>
        <time>2022-12-08T08:38:37Z</time>
      </trkpt>
      <trkpt lat="48.83348" lon="2.17602">
        <ele>115.49</ele>
        <time>2022-12-08T08:38:45Z</time>
      </trkpt>
      <trkpt lat="48.83345" lon="2.17596">
        <ele>114.75</ele>
        <time>2022-12-08T08:38:55Z</time>
      </trkpt>
      <trkpt lat="48.83338" lon="2.17586">
        <ele>115.38</ele>
        <time>2022-12-08T08:39:06Z</time>
      </trkpt>
      <trkpt lat="48.83326" lon="2.17563">
        <ele>115.11</ele>
        <time>2022-12-08T08:39:16Z</time>
      </trkpt>
      <trkpt lat="48.83329" lon="2.17532">
        <ele>114.78</ele>
        <time>2022-12-08T08:39:22Z</time>
      </trkpt>
      <trkpt lat="48.83316" lon="2.17494">
        <ele>114.56</ele>
        <time>2022-12-08T08:39:34Z</time>
      </trkpt>
      <trkpt lat="48.83311" lon="2.17473">
        <ele>115.18</ele>
        <time>2022-12-08T08:39:45Z</time>
      </trkpt>
      <trkpt lat="48.83311" lon="2.1745">
        <ele>115.29</ele>
        <time>2022-12-08T08:39:57Z</time>
      </trkpt>
      <trkpt lat="48.833" lon="2.17415">
        <ele>115.43</ele>
        <time>2022-12-08T08:40:14Z</time>
      </trkpt>
      <trkpt lat="48.83293" lon="2.17394">
        <ele>115.89</ele>
        <time>2022-12-08T08:40:25Z</time>
      </trkpt>
      <trkpt lat="48.83291" lon="2.17365">
        <ele>115.82</ele>
        <time>2022-12-08T08:40:41Z</time>
      </trkpt>
      <trkpt lat="48.83291" lon="2.17363">
        <ele>116.37</ele>
        <time>2022-12-08T08:40:43Z</time>
      </trkpt>
      <trkpt lat="48.83282" lon="2.17265">
        <ele>115.59</ele>
        <time>2022-12-08T08:41:01Z</time>
      </trkpt>
      <trkpt lat="48.83327" lon="2.17131">
        <ele>116.41</ele>
        <time>2022-12-08T08:41:15Z</time>
      </trkpt>
      <trkpt lat="48.8322" lon="2.17186">
        <ele>116.75</ele>
        <time>2022-12-08T08:41:31Z</time>
      </trkpt>
      <trkpt lat="48.83191" lon="2.17236">
        <ele>117.23</ele>
        <time>2022-12-08T08:41:45Z</time>
      </trkpt>
      <trkpt lat="48.83171" lon="2.17353">
        <ele>118.05</ele>
        <time>2022-12-08T08:41:56Z</time>
      </trkpt>
      <trkpt lat="48.83188" lon="2.17424">
        <ele>118.58</ele>
        <time>2022-12-08T08:42:11Z</time>
      </trkpt>
      <trkpt lat="48.83193" lon="2.1745">
        <ele>119.32</ele>
        <time>2022-12-08T08:42:23Z</time>
      </trkpt>
      <trkpt lat="48.83191" lon="2.17473">
        <ele>120.47</ele>
        <time>2022-12-08T08:42:31Z</time>
      </trkpt>
      <trkpt lat="48.83194" lon="2.17483">
        <ele>119.95</ele>
        <time>2022-12-08T08:42:41Z</time>
      </trkpt>
      <trkpt lat="48.83196" lon="2.17494">
        <ele>119.38</ele>
        <time>2022-12-08T08:42:54Z</time>
      </trkpt>
      <trkpt lat="48.83194" lon="2.17515">
        <ele>118.83</ele>
        <time>2022-12-08T08:43:10Z</time>
      </trkpt>
      <trkpt lat="48.83196" lon="2.1755">
        <ele>119.42</ele>
        <time>2022-12-08T08:43:25Z</time>
      </trkpt>
      <trkpt lat="48.83194" lon="2.17556">
        <ele>119.29</ele>
        <time>2022-12-08T08:43:28Z</time>
      </trkpt>
      <trkpt lat="48.83189" lon="2.17566">
        <ele>119.19</ele>
        <time>2022-12-08T08:43:33Z</time>
      </trkpt>
      <trkpt lat="48.83185" lon="2.17579">
        <ele>119.02</ele>
        <time>2022-12-08T08:43:38Z</time>
      </trkpt>
      <trkpt lat="48.83183" lon="2.17583">
        <ele>119.4</ele>
        <time>2022-12-08T08:43:40Z</time>
      </trkpt>
      <trkpt lat="48.8318" lon="2.17595">
        <ele>119.72</ele>
        <time>2022-12-08T08:43:45Z</time>
      </trkpt>
      <trkpt lat="48.83179" lon="2.17599">
        <ele>119.59</ele>
        <time>2022-12-08T08:43:47Z</time>
      </trkpt>
      <trkpt lat="48.83178" lon="2.17607">
        <ele>119.42</ele>
        <time>2022-12-08T08:43:51Z</time>
      </trkpt>
      <trkpt lat="48.83177" lon="2.17616">
        <ele>120.06</ele>
        <time>2022-12-08T08:43:55Z</time>
      </trkpt>
      <trkpt lat="48.83175" lon="2.17641">
        <ele>120.42</ele>
        <time>2022-12-08T08:44:06Z</time>
      </trkpt>
      <trkpt lat="48.83179" lon="2.1767">
        <ele>121.18</ele>
        <time>2022-12-08T08:44:22Z</time>
      </trkpt>
      <trkpt lat="48.83184" lon="2.1769">
        <ele>121.07</ele>
        <time>2022-12-08T08:44:32Z</time>
      </trkpt>
      <trkpt lat="48.83186" lon="2.17695">
        <ele>121.5</ele>
        <time>2022-12-08T08:44:34Z</time>
      </trkpt>
      <trkpt lat="48.83191" lon="2.17718">
        <ele>122.01</ele>
        <time>2022-12-08T08:44:43Z</time>
      </trkpt>
      <trkpt lat="48.83191" lon="2.17732">
        <ele>121.69</ele>
        <time>2022-12-08T08:44:49Z</time>
      </trkpt>
      <trkpt lat="48.83193" lon="2.17744">
        <ele>121.18</ele>
        <time>2022-12-08T08:44:55Z</time>
      </trkpt>
      <trkpt lat="48.83193" lon="2.17752">
        <ele>121.19</ele>
        <time>2022-12-08T08:44:59Z</time>
      </trkpt>
      <trkpt lat="48.83198" lon="2.1776">
        <ele>121.34</ele>
        <time>2022-12-08T08:45:04Z</time>
      </trkpt>
      <trkpt lat="48.8321" lon="2.17768">
        <ele>122.06</ele>
        <time>2022-12-08T08:45:13Z</time>
      </trkpt>
      <trkpt lat="48.83223" lon="2.17773">
        <ele>121.58</ele>
        <time>2022-12-08T08:45:21Z</time>
      </trkpt>
      <trkpt lat="48.83227" lon="2.1778">
        <ele>121.46</ele>
        <time>2022-12-08T08:45:26Z</time>
      </trkpt>
      <trkpt lat="48.83234" lon="2.17802">
        <ele>122.36</ele>
        <time>2022-12-08T08:45:38Z</time>
      </trkpt>
      <trkpt lat="48.8324" lon="2.17825">
        <ele>122.21</ele>
        <time>2022-12-08T08:45:53Z</time>
      </trkpt>
      <trkpt lat="48.83247" lon="2.1783">
        <ele>122.34</ele>
        <time>2022-12-08T08:45:57Z</time>
      </trkpt>
      <trkpt lat="48.83254" lon="2.17858">
        <ele>122.82</ele>
        <time>2022-12-08T08:46:12Z</time>
      </trkpt>
      <trkpt lat="48.83257" lon="2.17888">
        <ele>122.44</ele>
        <time>2022-12-08T08:46:26Z</time>
      </trkpt>
      <trkpt lat="48.83265" lon="2.17911">
        <ele>122.39</ele>
        <time>2022-12-08T08:46:40Z</time>
      </trkpt>
      <trkpt lat="48.83268" lon="2.17937">
        <ele>123.48</ele>
        <time>2022-12-08T08:46:55Z</time>
      </trkpt>
      <trkpt lat="48.83268" lon="2.17953">
        <ele>125.63</ele>
        <time>2022-12-08T08:47:10Z</time>
      </trkpt>
      <trkpt lat="48.83256" lon="2.17971">
        <ele>127.18</ele>
        <time>2022-12-08T08:47:25Z</time>
      </trkpt>
      <trkpt lat="48.83248" lon="2.17982">
        <ele>126.55</ele>
        <time>2022-12-08T08:47:30Z</time>
      </trkpt>
      <trkpt lat="48.83233" lon="2.17999">
        <ele>125.42</ele>
        <time>2022-12-08T08:47:38Z</time>
      </trkpt>
      <trkpt lat="48.83225" lon="2.18009">
        <ele>124.58</ele>
        <time>2022-12-08T08:47:47Z</time>
      </trkpt>
      <trkpt lat="48.8322" lon="2.18013">
        <ele>124.42</ele>
        <time>2022-12-08T08:47:51Z</time>
      </trkpt>
      <trkpt lat="48.83204" lon="2.18032">
        <ele>124.48</ele>
        <time>2022-12-08T08:48:06Z</time>
      </trkpt>
      <trkpt lat="48.83202" lon="2.18041">
        <ele>124.12</ele>
        <time>2022-12-08T08:48:11Z</time>
      </trkpt>
      <trkpt lat="48.8319" lon="2.18071">
        <ele>123.86</ele>
        <time>2022-12-08T08:48:28Z</time>
      </trkpt>
      <trkpt lat="48.83187" lon="2.18077">
        <ele>123.97</ele>
        <time>2022-12-08T08:48:44Z</time>
      </trkpt>
      <trkpt lat="48.83185" lon="2.18084">
        <ele>124.38</ele>
        <time>2022-12-08T08:49:08Z</time>
      </trkpt>
      <trkpt lat="48.83184" lon="2.18088">
        <ele>123.92</ele>
        <time>2022-12-08T08:49:27Z</time>
      </trkpt>
      <trkpt lat="48.83184" lon="2.18088">
        <ele>123.12</ele>
        <time>2022-12-08T08:49:49Z</time>
      </trkpt>
      <trkpt lat="48.83182" lon="2.18086">
        <ele>123.54</ele>
        <time>2022-12-08T08:50:08Z</time>
      </trkpt>
      <trkpt lat="48.83182" lon="2.18089">
        <ele>123.66</ele>
        <time>2022-12-08T08:50:30Z</time>
      </trkpt>
      <trkpt lat="48.83179" lon="2.18095">
        <ele>124.18</ele>
        <time>2022-12-08T08:50:47Z</time>
      </trkpt>
      <trkpt lat="48.83176" lon="2.18088">
        <ele>124.39</ele>
        <time>2022-12-08T08:51:02Z</time>
      </trkpt>
      <trkpt lat="48.83171" lon="2.18081">
        <ele>127.16</ele>
        <time>2022-12-08T08:51:16Z</time>
      </trkpt>
      <trkpt lat="48.83161" lon="2.18068">
        <ele>128.74</ele>
        <time>2022-12-08T08:51:31Z</time>
      </trkpt>
      <trkpt lat="48.83146" lon="2.1807">
        <ele>130.86</ele>
        <time>2022-12-08T08:51:47Z</time>
      </trkpt>
      <trkpt lat="48.83144" lon="2.18072">
        <ele>130.69</ele>
        <time>2022-12-08T08:51:49Z</time>
      </trkpt>
      <trkpt lat="48.8314" lon="2.18085">
        <ele>132.05</ele>
        <time>2022-12-08T08:51:58Z</time>
      </trkpt>
      <trkpt lat="48.83131" lon="2.18096">
        <ele>133.57</ele>
        <time>2022-12-08T08:52:15Z</time>
      </trkpt>
      <trkpt lat="48.83121" lon="2.18105">
        <ele>136.64</ele>
        <time>2022-12-08T08:52:27Z</time>
      </trkpt>
      <trkpt lat="48.83118" lon="2.18108">
        <ele>136.67</ele>
        <time>2022-12-08T08:52:29Z</time>
      </trkpt>
      <trkpt lat="48.83107" lon="2.18121">
        <ele>137.35</ele>
        <time>2022-12-08T08:52:42Z</time>
      </trkpt>
      <trkpt lat="48.83097" lon="2.18137">
        <ele>138.53</ele>
        <time>2022-12-08T08:52:59Z</time>
      </trkpt>
      <trkpt lat="48.83087" lon="2.18163">
        <ele>138.98</ele>
        <time>2022-12-08T08:53:14Z</time>
      </trkpt>
      <trkpt lat="48.83086" lon="2.18172">
        <ele>139.16</ele>
        <time>2022-12-08T08:53:20Z</time>
      </trkpt>
      <trkpt lat="48.83083" lon="2.18187">
        <ele>139.56</ele>
        <time>2022-12-08T08:53:27Z</time>
      </trkpt>
      <trkpt lat="48.83084" lon="2.18214">
        <ele>141.3</ele>
        <time>2022-12-08T08:53:43Z</time>
      </trkpt>
      <trkpt lat="48.83081" lon="2.18241">
        <ele>141.83</ele>
        <time>2022-12-08T08:53:58Z</time>
      </trkpt>
      <trkpt lat="48.83079" lon="2.18247">
        <ele>140.9</ele>
        <time>2022-12-08T08:54:00Z</time>
      </trkpt>
      <trkpt lat="48.83079" lon="2.1826">
        <ele>140.31</ele>
        <time>2022-12-08T08:54:07Z</time>
      </trkpt>
      <trkpt lat="48.8308" lon="2.18284">
        <ele>142.46</ele>
        <time>2022-12-08T08:54:21Z</time>
      </trkpt>
      <trkpt lat="48.83076" lon="2.18304">
        <ele>142.98</ele>
        <time>2022-12-08T08:54:32Z</time>
      </trkpt>
      <trkpt lat="48.83063" lon="2.18327">
        <ele>143.85</ele>
        <time>2022-12-08T08:54:48Z</time>
      </trkpt>
      <trkpt lat="48.83054" lon="2.18337">
        <ele>143.35</ele>
        <time>2022-12-08T08:55:01Z</time>
      </trkpt>
      <trkpt lat="48.83044" lon="2.18347">
        <ele>142.76</ele>
        <time>2022-12-08T08:55:13Z</time>
      </trkpt>
      <trkpt lat="48.83038" lon="2.18352">
        <ele>142.29</ele>
        <time>2022-12-08T08:55:17Z</time>
      </trkpt>
      <trkpt lat="48.83033" lon="2.18359">
        <ele>142.23</ele>
        <time>2022-12-08T08:55:23Z</time>
      </trkpt>
      <trkpt lat="48.83021" lon="2.18388">
        <ele>142.52</ele>
        <time>2022-12-08T08:55:39Z</time>
      </trkpt>
      <trkpt lat="48.8302" lon="2.1839">
        <ele>142.05</ele>
        <time>2022-12-08T08:55:40Z</time>
      </trkpt>
      <trkpt lat="48.83009" lon="2.18421">
        <ele>143.25</ele>
        <time>2022-12-08T08:55:57Z</time>
      </trkpt>
      <trkpt lat="48.82997" lon="2.18442">
        <ele>142.47</ele>
        <time>2022-12-08T08:56:12Z</time>
      </trkpt>
      <trkpt lat="48.82981" lon="2.18465">
        <ele>141.03</ele>
        <time>2022-12-08T08:56:26Z</time>
      </trkpt>
      <trkpt lat="48.82973" lon="2.18479">
        <ele>140.89</ele>
        <time>2022-12-08T08:56:34Z</time>
      </trkpt>
      <trkpt lat="48.82962" lon="2.18501">
        <ele>140.96</ele>
        <time>2022-12-08T08:56:49Z</time>
      </trkpt>
      <trkpt lat="48.82968" lon="2.18526">
        <ele>140.89</ele>
        <time>2022-12-08T08:57:02Z</time>
      </trkpt>
      <trkpt lat="48.82974" lon="2.18544">
        <ele>142.28</ele>
        <time>2022-12-08T08:57:16Z</time>
      </trkpt>
      <trkpt lat="48.82975" lon="2.18552">
        <ele>142.61</ele>
        <time>2022-12-08T08:57:21Z</time>
      </trkpt>
      <trkpt lat="48.82985" lon="2.18585">
        <ele>141.59</ele>
        <time>2022-12-08T08:57:36Z</time>
      </trkpt>
      <trkpt lat="48.83004" lon="2.18613">
        <ele>141.42</ele>
        <time>2022-12-08T08:57:51Z</time>
      </trkpt>
      <trkpt lat="48.83015" lon="2.18638">
        <ele>141.18</ele>
        <time>2022-12-08T08:58:03Z</time>
      </trkpt>
      <trkpt lat="48.83032" lon="2.1867">
        <ele>140.44</ele>
        <time>2022-12-08T08:58:19Z</time>
      </trkpt>
      <trkpt lat="48.83046" lon="2.18691">
        <ele>139.56</ele>
        <time>2022-12-08T08:58:31Z</time>
      </trkpt>
      <trkpt lat="48.83063" lon="2.18722">
        <ele>139.64</ele>
        <time>2022-12-08T08:58:46Z</time>
      </trkpt>
      <trkpt lat="48.83074" lon="2.18747">
        <ele>139.48</ele>
        <time>2022-12-08T08:58:58Z</time>
      </trkpt>
      <trkpt lat="48.83074" lon="2.18754">
        <ele>140.06</ele>
        <time>2022-12-08T08:59:01Z</time>
      </trkpt>
      <trkpt lat="48.83082" lon="2.18773">
        <ele>139.74</ele>
        <time>2022-12-08T08:59:10Z</time>
      </trkpt>
      <trkpt lat="48.83083" lon="2.18786">
        <ele>139.09</ele>
        <time>2022-12-08T08:59:16Z</time>
      </trkpt>
      <trkpt lat="48.83087" lon="2.18811">
        <ele>138.73</ele>
        <time>2022-12-08T08:59:32Z</time>
      </trkpt>
      <trkpt lat="48.83084" lon="2.18837">
        <ele>138.26</ele>
        <time>2022-12-08T08:59:49Z</time>
      </trkpt>
      <trkpt lat="48.83081" lon="2.18868">
        <ele>137.58</ele>
        <time>2022-12-08T09:00:06Z</time>
      </trkpt>
      <trkpt lat="48.8307" lon="2.18906">
        <ele>135</ele>
        <time>2022-12-08T09:00:23Z</time>
      </trkpt>
      <trkpt lat="48.83067" lon="2.18917">
        <ele>135.21</ele>
        <time>2022-12-08T09:00:28Z</time>
      </trkpt>
      <trkpt lat="48.8306" lon="2.18944">
        <ele>135.36</ele>
        <time>2022-12-08T09:00:44Z</time>
      </trkpt>
      <trkpt lat="48.83056" lon="2.18962">
        <ele>134.22</ele>
        <time>2022-12-08T09:00:58Z</time>
      </trkpt>
      <trkpt lat="48.83056" lon="2.18962">
        <ele>133.82</ele>
        <time>2022-12-08T09:00:59Z</time>
      </trkpt>
      <trkpt lat="48.83056" lon="2.18966">
        <ele>133.49</ele>
        <time>2022-12-08T09:01:02Z</time>
      </trkpt>
      <trkpt lat="48.83055" lon="2.18981">
        <ele>130.23</ele>
        <time>2022-12-08T09:01:17Z</time>
      </trkpt>
      <trkpt lat="48.83055" lon="2.18984">
        <ele>129.09</ele>
        <time>2022-12-08T09:01:19Z</time>
      </trkpt>
      <trkpt lat="48.8305" lon="2.19007">
        <ele>127.98</ele>
        <time>2022-12-08T09:01:33Z</time>
      </trkpt>
      <trkpt lat="48.83048" lon="2.19018">
        <ele>127.88</ele>
        <time>2022-12-08T09:01:52Z</time>
      </trkpt>
      <trkpt lat="48.83053" lon="2.19023">
        <ele>127.33</ele>
        <time>2022-12-08T09:02:07Z</time>
      </trkpt>
      <trkpt lat="48.83064" lon="2.19029">
        <ele>125.19</ele>
        <time>2022-12-08T09:02:20Z</time>
      </trkpt>
      <trkpt lat="48.83069" lon="2.19042">
        <ele>122.02</ele>
        <time>2022-12-08T09:02:33Z</time>
      </trkpt>
      <trkpt lat="48.83074" lon="2.1906">
        <ele>119.89</ele>
        <time>2022-12-08T09:02:46Z</time>
      </trkpt>
      <trkpt lat="48.83078" lon="2.1908">
        <ele>117.62</ele>
        <time>2022-12-08T09:02:59Z</time>
      </trkpt>
      <trkpt lat="48.83079" lon="2.19102">
        <ele>115</ele>
        <time>2022-12-08T09:03:15Z</time>
      </trkpt>
      <trkpt lat="48.83074" lon="2.19119">
        <ele>111.6</ele>
        <time>2022-12-08T09:03:27Z</time>
      </trkpt>
      <trkpt lat="48.83079" lon="2.19139">
        <ele>110.79</ele>
        <time>2022-12-08T09:03:39Z</time>
      </trkpt>
      <trkpt lat="48.83079" lon="2.1915">
        <ele>111.3</ele>
        <time>2022-12-08T09:03:43Z</time>
      </trkpt>
      <trkpt lat="48.83087" lon="2.19169">
        <ele>112.38</ele>
        <time>2022-12-08T09:03:53Z</time>
      </trkpt>
      <trkpt lat="48.83097" lon="2.19183">
        <ele>114.22</ele>
        <time>2022-12-08T09:04:07Z</time>
      </trkpt>
      <trkpt lat="48.83103" lon="2.19192">
        <ele>113.83</ele>
        <time>2022-12-08T09:04:23Z</time>
      </trkpt>
      <trkpt lat="48.83115" lon="2.19198">
        <ele>113.58</ele>
        <time>2022-12-08T09:04:37Z</time>
      </trkpt>
      <trkpt lat="48.83057" lon="2.19441">
        <ele>99.17</ele>
        <time>2022-12-08T09:09:05Z</time>
      </trkpt>
      <trkpt lat="48.83071" lon="2.19437">
        <ele>99.1</ele>
        <time>2022-12-08T09:09:08Z</time>
      </trkpt>
      <trkpt lat="48.83085" lon="2.19439">
        <ele>99.45</ele>
        <time>2022-12-08T09:09:18Z</time>
      </trkpt>
      <trkpt lat="48.83099" lon="2.19488">
        <ele>99.82</ele>
        <time>2022-12-08T09:09:33Z</time>
      </trkpt>
      <trkpt lat="48.83104" lon="2.19528">
        <ele>100.09</ele>
        <time>2022-12-08T09:09:42Z</time>
      </trkpt>
      <trkpt lat="48.83116" lon="2.19547">
        <ele>100.57</ele>
        <time>2022-12-08T09:09:56Z</time>
      </trkpt>
      <trkpt lat="48.83136" lon="2.19591">
        <ele>101.63</ele>
        <time>2022-12-08T09:10:10Z</time>
      </trkpt>
      <trkpt lat="48.83166" lon="2.1961">
        <ele>102.08</ele>
        <time>2022-12-08T09:10:25Z</time>
      </trkpt>
      <trkpt lat="48.83214" lon="2.19644">
        <ele>102.36</ele>
        <time>2022-12-08T09:10:39Z</time>
      </trkpt>
      <trkpt lat="48.83236" lon="2.19664">
        <ele>104.23</ele>
        <time>2022-12-08T09:10:52Z</time>
      </trkpt>
      <trkpt lat="48.83231" lon="2.19687">
        <ele>105.63</ele>
        <time>2022-12-08T09:11:04Z</time>
      </trkpt>
      <trkpt lat="48.83219" lon="2.19703">
        <ele>106.64</ele>
        <time>2022-12-08T09:11:20Z</time>
      </trkpt>
      <trkpt lat="48.83212" lon="2.19716">
        <ele>108.11</ele>
        <time>2022-12-08T09:11:30Z</time>
      </trkpt>
      <trkpt lat="48.83211" lon="2.19724">
        <ele>107.87</ele>
        <time>2022-12-08T09:11:33Z</time>
      </trkpt>
      <trkpt lat="48.83197" lon="2.19736">
        <ele>107.9</ele>
        <time>2022-12-08T09:11:38Z</time>
      </trkpt>
      <trkpt lat="48.83183" lon="2.19761">
        <ele>108.01</ele>
        <time>2022-12-08T09:11:48Z</time>
      </trkpt>
      <trkpt lat="48.83177" lon="2.19774">
        <ele>108.23</ele>
        <time>2022-12-08T09:12:05Z</time>
      </trkpt>
      <trkpt lat="48.83185" lon="2.19784">
        <ele>108.5</ele>
        <time>2022-12-08T09:12:22Z</time>
      </trkpt>
      <trkpt lat="48.83185" lon="2.19785">
        <ele>108.56</ele>
        <time>2022-12-08T09:12:24Z</time>
      </trkpt>
      <trkpt lat="48.8319" lon="2.19788">
        <ele>107.8</ele>
        <time>2022-12-08T09:12:39Z</time>
      </trkpt>
      <trkpt lat="48.83184" lon="2.19799">
        <ele>108.22</ele>
        <time>2022-12-08T09:12:50Z</time>
      </trkpt>
      <trkpt lat="48.83184" lon="2.19804">
        <ele>108.22</ele>
        <time>2022-12-08T09:12:55Z</time>
      </trkpt>
      <trkpt lat="48.83172" lon="2.19825">
        <ele>108.73</ele>
        <time>2022-12-08T09:13:10Z</time>
      </trkpt>
      <trkpt lat="48.83164" lon="2.19837">
        <ele>109.48</ele>
        <time>2022-12-08T09:13:21Z</time>
      </trkpt>
      <trkpt lat="48.83162" lon="2.1984">
        <ele>109.55</ele>
        <time>2022-12-08T09:13:24Z</time>
      </trkpt>
      <trkpt lat="48.83155" lon="2.19853">
        <ele>109.48</ele>
        <time>2022-12-08T09:13:36Z</time>
      </trkpt>
      <trkpt lat="48.83139" lon="2.19878">
        <ele>110.56</ele>
        <time>2022-12-08T09:13:53Z</time>
      </trkpt>
      <trkpt lat="48.83139" lon="2.19878">
        <ele>110.59</ele>
        <time>2022-12-08T09:13:54Z</time>
      </trkpt>
      <trkpt lat="48.83126" lon="2.199">
        <ele>111.29</ele>
        <time>2022-12-08T09:14:12Z</time>
      </trkpt>
      <trkpt lat="48.83113" lon="2.1992">
        <ele>111.76</ele>
        <time>2022-12-08T09:14:24Z</time>
      </trkpt>
      <trkpt lat="48.8311" lon="2.19923">
        <ele>112.05</ele>
        <time>2022-12-08T09:14:27Z</time>
      </trkpt>
      <trkpt lat="48.83099" lon="2.19943">
        <ele>112.09</ele>
        <time>2022-12-08T09:14:42Z</time>
      </trkpt>
      <trkpt lat="48.83095" lon="2.19949">
        <ele>111.77</ele>
        <time>2022-12-08T09:14:54Z</time>
      </trkpt>
      <trkpt lat="48.83087" lon="2.19953">
        <ele>111.9</ele>
        <time>2022-12-08T09:15:05Z</time>
      </trkpt>
      <trkpt lat="48.83083" lon="2.19959">
        <ele>112.32</ele>
        <time>2022-12-08T09:15:09Z</time>
      </trkpt>
      <trkpt lat="48.83066" lon="2.1997">
        <ele>111.72</ele>
        <time>2022-12-08T09:15:26Z</time>
      </trkpt>
      <trkpt lat="48.83053" lon="2.19968">
        <ele>111.64</ele>
        <time>2022-12-08T09:15:43Z</time>
      </trkpt>
      <trkpt lat="48.83058" lon="2.20008">
        <ele>111.68</ele>
        <time>2022-12-08T09:15:55Z</time>
      </trkpt>
      <trkpt lat="48.83059" lon="2.20017">
        <ele>110.8</ele>
        <time>2022-12-08T09:16:01Z</time>
      </trkpt>
      <trkpt lat="48.83059" lon="2.20032">
        <ele>110.62</ele>
        <time>2022-12-08T09:16:15Z</time>
      </trkpt>
      <trkpt lat="48.83058" lon="2.20036">
        <ele>110.04</ele>
        <time>2022-12-08T09:16:17Z</time>
      </trkpt>
      <trkpt lat="48.83057" lon="2.20039">
        <ele>110.11</ele>
        <time>2022-12-08T09:16:19Z</time>
      </trkpt>
      <trkpt lat="48.83057" lon="2.20051">
        <ele>110.59</ele>
        <time>2022-12-08T09:16:24Z</time>
      </trkpt>
      <trkpt lat="48.83057" lon="2.20067">
        <ele>109.37</ele>
        <time>2022-12-08T09:16:30Z</time>
      </trkpt>
      <trkpt lat="48.83057" lon="2.20068">
        <ele>110.09</ele>
        <time>2022-12-08T09:16:31Z</time>
      </trkpt>
      <trkpt lat="48.83053" lon="2.20088">
        <ele>109.83</ele>
        <time>2022-12-08T09:16:42Z</time>
      </trkpt>
      <trkpt lat="48.83052" lon="2.20104">
        <ele>109.22</ele>
        <time>2022-12-08T09:16:52Z</time>
      </trkpt>
      <trkpt lat="48.83048" lon="2.20127">
        <ele>108.71</ele>
        <time>2022-12-08T09:17:02Z</time>
      </trkpt>
      <trkpt lat="48.83045" lon="2.2015">
        <ele>108.26</ele>
        <time>2022-12-08T09:17:13Z</time>
      </trkpt>
      <trkpt lat="48.83039" lon="2.20169">
        <ele>107.53</ele>
        <time>2022-12-08T09:17:21Z</time>
      </trkpt>
      <trkpt lat="48.83036" lon="2.2018">
        <ele>107.66</ele>
        <time>2022-12-08T09:17:26Z</time>
      </trkpt>
      <trkpt lat="48.83034" lon="2.20185">
        <ele>107.39</ele>
        <time>2022-12-08T09:17:29Z</time>
      </trkpt>
      <trkpt lat="48.83033" lon="2.2019">
        <ele>107.76</ele>
        <time>2022-12-08T09:17:32Z</time>
      </trkpt>
      <trkpt lat="48.83033" lon="2.2021">
        <ele>106.86</ele>
        <time>2022-12-08T09:17:44Z</time>
      </trkpt>
      <trkpt lat="48.83025" lon="2.20247">
        <ele>106.25</ele>
        <time>2022-12-08T09:18:00Z</time>
      </trkpt>
      <trkpt lat="48.83023" lon="2.20257">
        <ele>106.1</ele>
        <time>2022-12-08T09:18:05Z</time>
      </trkpt>
      <trkpt lat="48.83018" lon="2.20288">
        <ele>106.09</ele>
        <time>2022-12-08T09:18:20Z</time>
      </trkpt>
      <trkpt lat="48.83024" lon="2.20319">
        <ele>105.69</ele>
        <time>2022-12-08T09:18:37Z</time>
      </trkpt>
      <trkpt lat="48.83028" lon="2.2035">
        <ele>105.19</ele>
        <time>2022-12-08T09:18:50Z</time>
      </trkpt>
      <trkpt lat="48.83036" lon="2.20379">
        <ele>104.8</ele>
        <time>2022-12-08T09:19:05Z</time>
      </trkpt>
      <trkpt lat="48.83035" lon="2.20392">
        <ele>104.46</ele>
        <time>2022-12-08T09:19:10Z</time>
      </trkpt>
      <trkpt lat="48.83034" lon="2.20401">
        <ele>104.47</ele>
        <time>2022-12-08T09:19:14Z</time>
      </trkpt>
      <trkpt lat="48.83032" lon="2.20436">
        <ele>104.57</ele>
        <time>2022-12-08T09:19:29Z</time>
      </trkpt>
      <trkpt lat="48.83027" lon="2.20466">
        <ele>103.3</ele>
        <time>2022-12-08T09:19:42Z</time>
      </trkpt>
      <trkpt lat="48.83022" lon="2.205">
        <ele>102.06</ele>
        <time>2022-12-08T09:19:58Z</time>
      </trkpt>
      <trkpt lat="48.83015" lon="2.20532">
        <ele>101.98</ele>
        <time>2022-12-08T09:20:12Z</time>
      </trkpt>
      <trkpt lat="48.83007" lon="2.20569">
        <ele>100.15</ele>
        <time>2022-12-08T09:20:29Z</time>
      </trkpt>
      <trkpt lat="48.83003" lon="2.20591">
        <ele>100.04</ele>
        <time>2022-12-08T09:20:39Z</time>
      </trkpt>
      <trkpt lat="48.82999" lon="2.20617">
        <ele>98.54</ele>
        <time>2022-12-08T09:20:50Z</time>
      </trkpt>
      <trkpt lat="48.82997" lon="2.20627">
        <ele>98.03</ele>
        <time>2022-12-08T09:20:54Z</time>
      </trkpt>
      <trkpt lat="48.82997" lon="2.20645">
        <ele>98.23</ele>
        <time>2022-12-08T09:21:04Z</time>
      </trkpt>
      <trkpt lat="48.82989" lon="2.20682">
        <ele>97.42</ele>
        <time>2022-12-08T09:21:22Z</time>
      </trkpt>
      <trkpt lat="48.82988" lon="2.20707">
        <ele>97.13</ele>
        <time>2022-12-08T09:21:35Z</time>
      </trkpt>
      <trkpt lat="48.82981" lon="2.20748">
        <ele>97.06</ele>
        <time>2022-12-08T09:21:53Z</time>
      </trkpt>
      <trkpt lat="48.82979" lon="2.20773">
        <ele>96.45</ele>
        <time>2022-12-08T09:22:06Z</time>
      </trkpt>
      <trkpt lat="48.82974" lon="2.20811">
        <ele>96.73</ele>
        <time>2022-12-08T09:22:20Z</time>
      </trkpt>
      <trkpt lat="48.82967" lon="2.20849">
        <ele>95.98</ele>
        <time>2022-12-08T09:22:38Z</time>
      </trkpt>
      <trkpt lat="48.82961" lon="2.20876">
        <ele>95.87</ele>
        <time>2022-12-08T09:22:50Z</time>
      </trkpt>
      <trkpt lat="48.82958" lon="2.20893">
        <ele>96.15</ele>
        <time>2022-12-08T09:22:56Z</time>
      </trkpt>
      <trkpt lat="48.82952" lon="2.20925">
        <ele>95.49</ele>
        <time>2022-12-08T09:23:12Z</time>
      </trkpt>
      <trkpt lat="48.8295" lon="2.20937">
        <ele>96.22</ele>
        <time>2022-12-08T09:23:21Z</time>
      </trkpt>
      <trkpt lat="48.82949" lon="2.20962">
        <ele>96.13</ele>
        <time>2022-12-08T09:23:35Z</time>
      </trkpt>
      <trkpt lat="48.8295" lon="2.20981">
        <ele>96.74</ele>
        <time>2022-12-08T09:23:47Z</time>
      </trkpt>
      <trkpt lat="48.82943" lon="2.20996">
        <ele>97.21</ele>
        <time>2022-12-08T09:23:54Z</time>
      </trkpt>
      <trkpt lat="48.82943" lon="2.21007">
        <ele>96.47</ele>
        <time>2022-12-08T09:24:01Z</time>
      </trkpt>
      <trkpt lat="48.82943" lon="2.21017">
        <ele>95.68</ele>
        <time>2022-12-08T09:24:07Z</time>
      </trkpt>
      <trkpt lat="48.82942" lon="2.21029">
        <ele>96.13</ele>
        <time>2022-12-08T09:24:13Z</time>
      </trkpt>
      <trkpt lat="48.82946" lon="2.2105">
        <ele>96.48</ele>
        <time>2022-12-08T09:24:25Z</time>
      </trkpt>
      <trkpt lat="48.82945" lon="2.21059">
        <ele>96.3</ele>
        <time>2022-12-08T09:24:29Z</time>
      </trkpt>
      <trkpt lat="48.82945" lon="2.21069">
        <ele>96.49</ele>
        <time>2022-12-08T09:24:33Z</time>
      </trkpt>
      <trkpt lat="48.82943" lon="2.21083">
        <ele>96.43</ele>
        <time>2022-12-08T09:24:37Z</time>
      </trkpt>
      <trkpt lat="48.82942" lon="2.21105">
        <ele>96.03</ele>
        <time>2022-12-08T09:24:45Z</time>
      </trkpt>
      <trkpt lat="48.82947" lon="2.21129">
        <ele>95.49</ele>
        <time>2022-12-08T09:24:59Z</time>
      </trkpt>
      <trkpt lat="48.82946" lon="2.21143">
        <ele>96</ele>
        <time>2022-12-08T09:25:05Z</time>
      </trkpt>
      <trkpt lat="48.82945" lon="2.21148">
        <ele>95.66</ele>
        <time>2022-12-08T09:25:07Z</time>
      </trkpt>
      <trkpt lat="48.82945" lon="2.21159">
        <ele>95.49</ele>
        <time>2022-12-08T09:25:11Z</time>
      </trkpt>
      <trkpt lat="48.8295" lon="2.21174">
        <ele>94.76</ele>
        <time>2022-12-08T09:25:20Z</time>
      </trkpt>
      <trkpt lat="48.82951" lon="2.21176">
        <ele>94.76</ele>
        <time>2022-12-08T09:25:21Z</time>
      </trkpt>
      <trkpt lat="48.82955" lon="2.21199">
        <ele>93.9</ele>
        <time>2022-12-08T09:25:30Z</time>
      </trkpt>
      <trkpt lat="48.82954" lon="2.21214">
        <ele>93.85</ele>
        <time>2022-12-08T09:25:36Z</time>
      </trkpt>
      <trkpt lat="48.82955" lon="2.21218">
        <ele>93.85</ele>
        <time>2022-12-08T09:25:38Z</time>
      </trkpt>
      <trkpt lat="48.82959" lon="2.21228">
        <ele>92.7</ele>
        <time>2022-12-08T09:25:44Z</time>
      </trkpt>
      <trkpt lat="48.82964" lon="2.21255">
        <ele>90.99</ele>
        <time>2022-12-08T09:25:58Z</time>
      </trkpt>
      <trkpt lat="48.82964" lon="2.21266">
        <ele>89.78</ele>
        <time>2022-12-08T09:26:02Z</time>
      </trkpt>
      <trkpt lat="48.82968" lon="2.2128">
        <ele>89.79</ele>
        <time>2022-12-08T09:26:10Z</time>
      </trkpt>
      <trkpt lat="48.82982" lon="2.21309">
        <ele>89.71</ele>
        <time>2022-12-08T09:26:26Z</time>
      </trkpt>
      <trkpt lat="48.82988" lon="2.21324">
        <ele>89.63</ele>
        <time>2022-12-08T09:26:33Z</time>
      </trkpt>
      <trkpt lat="48.82993" lon="2.21337">
        <ele>90.27</ele>
        <time>2022-12-08T09:26:39Z</time>
      </trkpt>
      <trkpt lat="48.83001" lon="2.21354">
        <ele>90.88</ele>
        <time>2022-12-08T09:26:47Z</time>
      </trkpt>
      <trkpt lat="48.83006" lon="2.2137">
        <ele>89.95</ele>
        <time>2022-12-08T09:26:56Z</time>
      </trkpt>
      <trkpt lat="48.83017" lon="2.21395">
        <ele>89.28</ele>
        <time>2022-12-08T09:27:11Z</time>
      </trkpt>
      <trkpt lat="48.83023" lon="2.21401">
        <ele>88.94</ele>
        <time>2022-12-08T09:27:14Z</time>
      </trkpt>
      <trkpt lat="48.83032" lon="2.21409">
        <ele>88.33</ele>
        <time>2022-12-08T09:27:21Z</time>
      </trkpt>
      <trkpt lat="48.83035" lon="2.21418">
        <ele>87.9</ele>
        <time>2022-12-08T09:27:25Z</time>
      </trkpt>
      <trkpt lat="48.8304" lon="2.21436">
        <ele>87.1</ele>
        <time>2022-12-08T09:27:34Z</time>
      </trkpt>
      <trkpt lat="48.83043" lon="2.21442">
        <ele>87.14</ele>
        <time>2022-12-08T09:27:38Z</time>
      </trkpt>
      <trkpt lat="48.83047" lon="2.21442">
        <ele>88.02</ele>
        <time>2022-12-08T09:27:53Z</time>
      </trkpt>
      <trkpt lat="48.83043" lon="2.21445">
        <ele>87.36</ele>
        <time>2022-12-08T09:28:03Z</time>
      </trkpt>
      <trkpt lat="48.8304" lon="2.21448">
        <ele>87.14</ele>
        <time>2022-12-08T09:28:15Z</time>
      </trkpt>
      <trkpt lat="48.83045" lon="2.21449">
        <ele>87.34</ele>
        <time>2022-12-08T09:28:33Z</time>
      </trkpt>
      <trkpt lat="48.83049" lon="2.21444">
        <ele>87.59</ele>
        <time>2022-12-08T09:28:47Z</time>
      </trkpt>
      <trkpt lat="48.83046" lon="2.21449">
        <ele>87.57</ele>
        <time>2022-12-08T09:29:01Z</time>
      </trkpt>
      <trkpt lat="48.83039" lon="2.21455">
        <ele>87.15</ele>
        <time>2022-12-08T09:29:19Z</time>
      </trkpt>
      <trkpt lat="48.83047" lon="2.21447">
        <ele>88.09</ele>
        <time>2022-12-08T09:29:38Z</time>
      </trkpt>
      <trkpt lat="48.83051" lon="2.21443">
        <ele>87.45</ele>
        <time>2022-12-08T09:29:58Z</time>
      </trkpt>
      <trkpt lat="48.83054" lon="2.21442">
        <ele>87.86</ele>
        <time>2022-12-08T09:30:20Z</time>
      </trkpt>
      <trkpt lat="48.83055" lon="2.21442">
        <ele>87.97</ele>
        <time>2022-12-08T09:30:25Z</time>
      </trkpt>
      <trkpt lat="48.83056" lon="2.21446">
        <ele>87.48</ele>
        <time>2022-12-08T09:30:38Z</time>
      </trkpt>
      <trkpt lat="48.83053" lon="2.21449">
        <ele>88.46</ele>
        <time>2022-12-08T09:30:41Z</time>
      </trkpt>
      <trkpt lat="48.8305" lon="2.21454">
        <ele>88.62</ele>
        <time>2022-12-08T09:30:59Z</time>
      </trkpt>
      <trkpt lat="48.8305" lon="2.21456">
        <ele>87.67</ele>
        <time>2022-12-08T09:31:01Z</time>
      </trkpt>
      <trkpt lat="48.83048" lon="2.21462">
        <ele>88.27</ele>
        <time>2022-12-08T09:31:22Z</time>
      </trkpt>
      <trkpt lat="48.83051" lon="2.2147">
        <ele>87.67</ele>
        <time>2022-12-08T09:31:37Z</time>
      </trkpt>
      <trkpt lat="48.83062" lon="2.21486">
        <ele>86.98</ele>
        <time>2022-12-08T09:31:53Z</time>
      </trkpt>
      <trkpt lat="48.83062" lon="2.21487">
        <ele>87.07</ele>
        <time>2022-12-08T09:31:54Z</time>
      </trkpt>
      <trkpt lat="48.8307" lon="2.21501">
        <ele>86.8</ele>
        <time>2022-12-08T09:32:05Z</time>
      </trkpt>
      <trkpt lat="48.83082" lon="2.21515">
        <ele>86.02</ele>
        <time>2022-12-08T09:32:20Z</time>
      </trkpt>
      <trkpt lat="48.83093" lon="2.21528">
        <ele>85.64</ele>
        <time>2022-12-08T09:32:34Z</time>
      </trkpt>
      <trkpt lat="48.83105" lon="2.21538">
        <ele>84.97</ele>
        <time>2022-12-08T09:32:45Z</time>
      </trkpt>
      <trkpt lat="48.8312" lon="2.21538">
        <ele>84.66</ele>
        <time>2022-12-08T09:32:58Z</time>
      </trkpt>
      <trkpt lat="48.83123" lon="2.21538">
        <ele>84.9</ele>
        <time>2022-12-08T09:32:59Z</time>
      </trkpt>
      <trkpt lat="48.83138" lon="2.2154">
        <ele>85.12</ele>
        <time>2022-12-08T09:33:07Z</time>
      </trkpt>
      <trkpt lat="48.83139" lon="2.2154">
        <ele>85.03</ele>
        <time>2022-12-08T09:33:08Z</time>
      </trkpt>
      <trkpt lat="48.8316" lon="2.21541">
        <ele>83.24</ele>
        <time>2022-12-08T09:33:24Z</time>
      </trkpt>
      <trkpt lat="48.83164" lon="2.21542">
        <ele>83.2</ele>
        <time>2022-12-08T09:33:27Z</time>
      </trkpt>
      <trkpt lat="48.83181" lon="2.21547">
        <ele>82.39</ele>
        <time>2022-12-08T09:33:42Z</time>
      </trkpt>
      <trkpt lat="48.83198" lon="2.21558">
        <ele>80.43</ele>
        <time>2022-12-08T09:33:56Z</time>
      </trkpt>
      <trkpt lat="48.83214" lon="2.21573">
        <ele>79.02</ele>
        <time>2022-12-08T09:34:10Z</time>
      </trkpt>
      <trkpt lat="48.83228" lon="2.21589">
        <ele>78.96</ele>
        <time>2022-12-08T09:34:22Z</time>
      </trkpt>
      <trkpt lat="48.83246" lon="2.21601">
        <ele>78.13</ele>
        <time>2022-12-08T09:34:37Z</time>
      </trkpt>
      <trkpt lat="48.83251" lon="2.21599">
        <ele>78.43</ele>
        <time>2022-12-08T09:34:40Z</time>
      </trkpt>
      <trkpt lat="48.83262" lon="2.21587">
        <ele>77.71</ele>
        <time>2022-12-08T09:34:47Z</time>
      </trkpt>
      <trkpt lat="48.83267" lon="2.2158">
        <ele>77.87</ele>
        <time>2022-12-08T09:34:51Z</time>
      </trkpt>
      <trkpt lat="48.8328" lon="2.21564">
        <ele>77.57</ele>
        <time>2022-12-08T09:35:00Z</time>
      </trkpt>
      <trkpt lat="48.83282" lon="2.21554">
        <ele>77.36</ele>
        <time>2022-12-08T09:35:05Z</time>
      </trkpt>
      <trkpt lat="48.83287" lon="2.21547">
        <ele>77.17</ele>
        <time>2022-12-08T09:35:14Z</time>
      </trkpt>
      <trkpt lat="48.83302" lon="2.21524">
        <ele>76.7</ele>
        <time>2022-12-08T09:35:28Z</time>
      </trkpt>
      <trkpt lat="48.83308" lon="2.21515">
        <ele>76.12</ele>
        <time>2022-12-08T09:35:33Z</time>
      </trkpt>
      <trkpt lat="48.83321" lon="2.21495">
        <ele>75.53</ele>
        <time>2022-12-08T09:35:42Z</time>
      </trkpt>
      <trkpt lat="48.83332" lon="2.21476">
        <ele>75.24</ele>
        <time>2022-12-08T09:35:54Z</time>
      </trkpt>
      <trkpt lat="48.83337" lon="2.21465">
        <ele>74.93</ele>
        <time>2022-12-08T09:35:59Z</time>
      </trkpt>
      <trkpt lat="48.83344" lon="2.21446">
        <ele>74.44</ele>
        <time>2022-12-08T09:36:07Z</time>
      </trkpt>
      <trkpt lat="48.83354" lon="2.21432">
        <ele>74.28</ele>
        <time>2022-12-08T09:36:16Z</time>
      </trkpt>
      <trkpt lat="48.83357" lon="2.21424">
        <ele>73.98</ele>
        <time>2022-12-08T09:36:20Z</time>
      </trkpt>
      <trkpt lat="48.83364" lon="2.21411">
        <ele>73.55</ele>
        <time>2022-12-08T09:36:27Z</time>
      </trkpt>
      <trkpt lat="48.83365" lon="2.21409">
        <ele>73.92</ele>
        <time>2022-12-08T09:36:28Z</time>
      </trkpt>
      <trkpt lat="48.83368" lon="2.21406">
        <ele>73.94</ele>
        <time>2022-12-08T09:36:30Z</time>
      </trkpt>
      <trkpt lat="48.83369" lon="2.214">
        <ele>73.5</ele>
        <time>2022-12-08T09:36:32Z</time>
      </trkpt>
      <trkpt lat="48.8337" lon="2.21398">
        <ele>73.26</ele>
        <time>2022-12-08T09:36:33Z</time>
      </trkpt>
      <trkpt lat="48.83371" lon="2.21396">
        <ele>73</ele>
        <time>2022-12-08T09:36:34Z</time>
      </trkpt>
      <trkpt lat="48.83372" lon="2.21393">
        <ele>73.63</ele>
        <time>2022-12-08T09:36:35Z</time>
      </trkpt>
      <trkpt lat="48.83373" lon="2.21391">
        <ele>73.53</ele>
        <time>2022-12-08T09:36:36Z</time>
      </trkpt>
      <trkpt lat="48.83374" lon="2.21389">
        <ele>73.45</ele>
        <time>2022-12-08T09:36:37Z</time>
      </trkpt>
      <trkpt lat="48.83383" lon="2.21378">
        <ele>72.8</ele>
        <time>2022-12-08T09:36:44Z</time>
      </trkpt>
      <trkpt lat="48.83388" lon="2.21371">
        <ele>73.32</ele>
        <time>2022-12-08T09:36:48Z</time>
      </trkpt>
      <trkpt lat="48.83392" lon="2.21363">
        <ele>72.72</ele>
        <time>2022-12-08T09:36:53Z</time>
      </trkpt>
      <trkpt lat="48.83396" lon="2.21358">
        <ele>72.99</ele>
        <time>2022-12-08T09:36:57Z</time>
      </trkpt>
      <trkpt lat="48.83403" lon="2.21348">
        <ele>72.71</ele>
        <time>2022-12-08T09:37:03Z</time>
      </trkpt>
      <trkpt lat="48.8341" lon="2.21333">
        <ele>72.56</ele>
        <time>2022-12-08T09:37:11Z</time>
      </trkpt>
      <trkpt lat="48.8342" lon="2.21314">
        <ele>71.92</ele>
        <time>2022-12-08T09:37:21Z</time>
      </trkpt>
      <trkpt lat="48.83431" lon="2.2129">
        <ele>71.81</ele>
        <time>2022-12-08T09:37:32Z</time>
      </trkpt>
      <trkpt lat="48.83442" lon="2.21274">
        <ele>70.81</ele>
        <time>2022-12-08T09:37:41Z</time>
      </trkpt>
      <trkpt lat="48.83443" lon="2.21272">
        <ele>70.55</ele>
        <time>2022-12-08T09:37:42Z</time>
      </trkpt>
      <trkpt lat="48.83444" lon="2.2127">
        <ele>71.08</ele>
        <time>2022-12-08T09:37:43Z</time>
      </trkpt>
      <trkpt lat="48.83454" lon="2.2126">
        <ele>71.5</ele>
        <time>2022-12-08T09:37:52Z</time>
      </trkpt>
      <trkpt lat="48.83457" lon="2.21253">
        <ele>71.49</ele>
        <time>2022-12-08T09:37:56Z</time>
      </trkpt>
      <trkpt lat="48.83458" lon="2.21251">
        <ele>71.37</ele>
        <time>2022-12-08T09:37:57Z</time>
      </trkpt>
      <trkpt lat="48.83459" lon="2.2125">
        <ele>71.21</ele>
        <time>2022-12-08T09:37:58Z</time>
      </trkpt>
      <trkpt lat="48.83466" lon="2.21238">
        <ele>71.46</ele>
        <time>2022-12-08T09:38:06Z</time>
      </trkpt>
      <trkpt lat="48.83467" lon="2.21236">
        <ele>70.89</ele>
        <time>2022-12-08T09:38:07Z</time>
      </trkpt>
      <trkpt lat="48.8347" lon="2.21222">
        <ele>71.16</ele>
        <time>2022-12-08T09:38:13Z</time>
      </trkpt>
      <trkpt lat="48.8347" lon="2.2122">
        <ele>71.62</ele>
        <time>2022-12-08T09:38:14Z</time>
      </trkpt>
      <trkpt lat="48.83472" lon="2.21207">
        <ele>71.85</ele>
        <time>2022-12-08T09:38:25Z</time>
      </trkpt>
      <trkpt lat="48.83474" lon="2.21194">
        <ele>72.48</ele>
        <time>2022-12-08T09:38:41Z</time>
      </trkpt>
      <trkpt lat="48.8347" lon="2.21186">
        <ele>71.58</ele>
        <time>2022-12-08T09:38:51Z</time>
      </trkpt>
      <trkpt lat="48.83463" lon="2.21165">
        <ele>72.38</ele>
        <time>2022-12-08T09:39:05Z</time>
      </trkpt>
      <trkpt lat="48.83457" lon="2.21147">
        <ele>73.78</ele>
        <time>2022-12-08T09:39:17Z</time>
      </trkpt>
      <trkpt lat="48.83451" lon="2.21132">
        <ele>75.4</ele>
        <time>2022-12-08T09:39:29Z</time>
      </trkpt>
      <trkpt lat="48.83448" lon="2.21113">
        <ele>75.1</ele>
        <time>2022-12-08T09:39:44Z</time>
      </trkpt>
      <trkpt lat="48.83453" lon="2.21102">
        <ele>75.44</ele>
        <time>2022-12-08T09:39:55Z</time>
      </trkpt>
      <trkpt lat="48.83445" lon="2.21058">
        <ele>76.39</ele>
        <time>2022-12-08T09:40:12Z</time>
      </trkpt>
      <trkpt lat="48.83433" lon="2.21019">
        <ele>78.06</ele>
        <time>2022-12-08T09:40:27Z</time>
      </trkpt>
      <trkpt lat="48.83428" lon="2.21">
        <ele>77.59</ele>
        <time>2022-12-08T09:40:42Z</time>
      </trkpt>
      <trkpt lat="48.83447" lon="2.20974">
        <ele>78.01</ele>
        <time>2022-12-08T09:40:55Z</time>
      </trkpt>
      <trkpt lat="48.83447" lon="2.20952">
        <ele>78.68</ele>
        <time>2022-12-08T09:41:01Z</time>
      </trkpt>
      <trkpt lat="48.83443" lon="2.20928">
        <ele>78.77</ele>
        <time>2022-12-08T09:41:12Z</time>
      </trkpt>
      <trkpt lat="48.83447" lon="2.20903">
        <ele>79.08</ele>
        <time>2022-12-08T09:41:28Z</time>
      </trkpt>
      <trkpt lat="48.83457" lon="2.2088">
        <ele>80.54</ele>
        <time>2022-12-08T09:43:16Z</time>
      </trkpt>
      <trkpt lat="48.83473" lon="2.20853">
        <ele>80.61</ele>
        <time>2022-12-08T09:43:19Z</time>
      </trkpt>
      <trkpt lat="48.83452" lon="2.20824">
        <ele>80.04</ele>
        <time>2022-12-08T09:43:28Z</time>
      </trkpt>
      <trkpt lat="48.83424" lon="2.2079">
        <ele>79.26</ele>
        <time>2022-12-08T09:43:37Z</time>
      </trkpt>
      <trkpt lat="48.83434" lon="2.20784">
        <ele>78.74</ele>
        <time>2022-12-08T09:43:50Z</time>
      </trkpt>
      <trkpt lat="48.83445" lon="2.20783">
        <ele>78.56</ele>
        <time>2022-12-08T09:43:57Z</time>
      </trkpt>
      <trkpt lat="48.83449" lon="2.20776">
        <ele>78.63</ele>
        <time>2022-12-08T09:44:02Z</time>
      </trkpt>
      <trkpt lat="48.83456" lon="2.20762">
        <ele>78.8</ele>
        <time>2022-12-08T09:44:13Z</time>
      </trkpt>
      <trkpt lat="48.8346" lon="2.20746">
        <ele>78.59</ele>
        <time>2022-12-08T09:44:23Z</time>
      </trkpt>
      <trkpt lat="48.83472" lon="2.20718">
        <ele>77.24</ele>
        <time>2022-12-08T09:44:38Z</time>
      </trkpt>
      <trkpt lat="48.83483" lon="2.207">
        <ele>77.86</ele>
        <time>2022-12-08T09:44:48Z</time>
      </trkpt>
      <trkpt lat="48.83491" lon="2.20686">
        <ele>78</ele>
        <time>2022-12-08T09:44:54Z</time>
      </trkpt>
      <trkpt lat="48.83496" lon="2.20676">
        <ele>78.33</ele>
        <time>2022-12-08T09:44:59Z</time>
      </trkpt>
      <trkpt lat="48.83504" lon="2.20656">
        <ele>77.97</ele>
        <time>2022-12-08T09:45:10Z</time>
      </trkpt>
      <trkpt lat="48.83509" lon="2.20639">
        <ele>77.7</ele>
        <time>2022-12-08T09:45:18Z</time>
      </trkpt>
      <trkpt lat="48.83513" lon="2.20626">
        <ele>77.12</ele>
        <time>2022-12-08T09:45:25Z</time>
      </trkpt>
      <trkpt lat="48.8352" lon="2.20616">
        <ele>77.34</ele>
        <time>2022-12-08T09:45:32Z</time>
      </trkpt>
      <trkpt lat="48.83526" lon="2.20596">
        <ele>77.16</ele>
        <time>2022-12-08T09:45:41Z</time>
      </trkpt>
      <trkpt lat="48.83535" lon="2.20576">
        <ele>77.27</ele>
        <time>2022-12-08T09:45:52Z</time>
      </trkpt>
      <trkpt lat="48.83537" lon="2.20569">
        <ele>76.19</ele>
        <time>2022-12-08T09:46:01Z</time>
      </trkpt>
      <trkpt lat="48.83544" lon="2.20559">
        <ele>76.35</ele>
        <time>2022-12-08T09:46:14Z</time>
      </trkpt>
      <trkpt lat="48.83556" lon="2.20559">
        <ele>76.46</ele>
        <time>2022-12-08T09:46:35Z</time>
      </trkpt>
      <trkpt lat="48.8356" lon="2.2056">
        <ele>76.53</ele>
        <time>2022-12-08T09:46:49Z</time>
      </trkpt>
      <trkpt lat="48.83571" lon="2.20554">
        <ele>75.44</ele>
        <time>2022-12-08T09:47:06Z</time>
      </trkpt>
      <trkpt lat="48.83576" lon="2.20546">
        <ele>75.46</ele>
        <time>2022-12-08T09:47:16Z</time>
      </trkpt>
      <trkpt lat="48.83584" lon="2.20534">
        <ele>75.36</ele>
        <time>2022-12-08T09:47:29Z</time>
      </trkpt>
      <trkpt lat="48.83589" lon="2.20522">
        <ele>74.51</ele>
        <time>2022-12-08T09:47:38Z</time>
      </trkpt>
      <trkpt lat="48.83593" lon="2.20516">
        <ele>74.77</ele>
        <time>2022-12-08T09:47:42Z</time>
      </trkpt>
      <trkpt lat="48.83597" lon="2.2051">
        <ele>74.92</ele>
        <time>2022-12-08T09:47:46Z</time>
      </trkpt>
      <trkpt lat="48.83609" lon="2.20498">
        <ele>74.91</ele>
        <time>2022-12-08T09:47:56Z</time>
      </trkpt>
      <trkpt lat="48.83615" lon="2.20489">
        <ele>73.81</ele>
        <time>2022-12-08T09:48:03Z</time>
      </trkpt>
      <trkpt lat="48.83622" lon="2.20473">
        <ele>73.89</ele>
        <time>2022-12-08T09:48:15Z</time>
      </trkpt>
      <trkpt lat="48.83634" lon="2.20446">
        <ele>73.06</ele>
        <time>2022-12-08T09:48:31Z</time>
      </trkpt>
      <trkpt lat="48.83646" lon="2.20423">
        <ele>72.89</ele>
        <time>2022-12-08T09:48:46Z</time>
      </trkpt>
      <trkpt lat="48.83658" lon="2.20396">
        <ele>73.38</ele>
        <time>2022-12-08T09:49:00Z</time>
      </trkpt>
      <trkpt lat="48.83662" lon="2.20386">
        <ele>74.1</ele>
        <time>2022-12-08T09:49:07Z</time>
      </trkpt>
      <trkpt lat="48.83673" lon="2.20378">
        <ele>74.17</ele>
        <time>2022-12-08T09:49:16Z</time>
      </trkpt>
      <trkpt lat="48.83675" lon="2.20375">
        <ele>74.23</ele>
        <time>2022-12-08T09:49:18Z</time>
      </trkpt>
      <trkpt lat="48.83677" lon="2.20361">
        <ele>74.74</ele>
        <time>2022-12-08T09:49:25Z</time>
      </trkpt>
      <trkpt lat="48.83678" lon="2.2035">
        <ele>74.36</ele>
        <time>2022-12-08T09:49:30Z</time>
      </trkpt>
      <trkpt lat="48.83679" lon="2.20341">
        <ele>74.92</ele>
        <time>2022-12-08T09:49:34Z</time>
      </trkpt>
      <trkpt lat="48.83677" lon="2.20328">
        <ele>75.43</ele>
        <time>2022-12-08T09:49:40Z</time>
      </trkpt>
      <trkpt lat="48.83676" lon="2.20317">
        <ele>75.25</ele>
        <time>2022-12-08T09:49:44Z</time>
      </trkpt>
      <trkpt lat="48.83674" lon="2.20298">
        <ele>75.04</ele>
        <time>2022-12-08T09:49:51Z</time>
      </trkpt>
      <trkpt lat="48.83674" lon="2.2028">
        <ele>75.61</ele>
        <time>2022-12-08T09:49:58Z</time>
      </trkpt>
      <trkpt lat="48.83672" lon="2.20261">
        <ele>75.15</ele>
        <time>2022-12-08T09:50:07Z</time>
      </trkpt>
      <trkpt lat="48.83668" lon="2.20239">
        <ele>75.88</ele>
        <time>2022-12-08T09:50:17Z</time>
      </trkpt>
      <trkpt lat="48.83668" lon="2.20237">
        <ele>76.16</ele>
        <time>2022-12-08T09:50:18Z</time>
      </trkpt>
      <trkpt lat="48.83669" lon="2.20217">
        <ele>75.48</ele>
        <time>2022-12-08T09:50:27Z</time>
      </trkpt>
      <trkpt lat="48.83668" lon="2.202">
        <ele>76.18</ele>
        <time>2022-12-08T09:50:36Z</time>
      </trkpt>
      <trkpt lat="48.83667" lon="2.20183">
        <ele>76.62</ele>
        <time>2022-12-08T09:50:44Z</time>
      </trkpt>
      <trkpt lat="48.83667" lon="2.20172">
        <ele>76.55</ele>
        <time>2022-12-08T09:50:49Z</time>
      </trkpt>
      <trkpt lat="48.83665" lon="2.20148">
        <ele>77.57</ele>
        <time>2022-12-08T09:51:00Z</time>
      </trkpt>
      <trkpt lat="48.83665" lon="2.20143">
        <ele>77.11</ele>
        <time>2022-12-08T09:51:02Z</time>
      </trkpt>
      <trkpt lat="48.83665" lon="2.20126">
        <ele>77.66</ele>
        <time>2022-12-08T09:51:10Z</time>
      </trkpt>
      <trkpt lat="48.83665" lon="2.20121">
        <ele>77.46</ele>
        <time>2022-12-08T09:51:13Z</time>
      </trkpt>
      <trkpt lat="48.83664" lon="2.2011">
        <ele>77.79</ele>
        <time>2022-12-08T09:51:19Z</time>
      </trkpt>
      <trkpt lat="48.83662" lon="2.20089">
        <ele>78.63</ele>
        <time>2022-12-08T09:51:29Z</time>
      </trkpt>
      <trkpt lat="48.83658" lon="2.20068">
        <ele>78.74</ele>
        <time>2022-12-08T09:51:39Z</time>
      </trkpt>
      <trkpt lat="48.83657" lon="2.20054">
        <ele>79.11</ele>
        <time>2022-12-08T09:51:46Z</time>
      </trkpt>
      <trkpt lat="48.83657" lon="2.20037">
        <ele>79.07</ele>
        <time>2022-12-08T09:51:55Z</time>
      </trkpt>
      <trkpt lat="48.83658" lon="2.20022">
        <ele>80.06</ele>
        <time>2022-12-08T09:52:03Z</time>
      </trkpt>
      <trkpt lat="48.83659" lon="2.20012">
        <ele>80.3</ele>
        <time>2022-12-08T09:52:08Z</time>
      </trkpt>
      <trkpt lat="48.83657" lon="2.19985">
        <ele>80.87</ele>
        <time>2022-12-08T09:52:20Z</time>
      </trkpt>
      <trkpt lat="48.83657" lon="2.19983">
        <ele>80.94</ele>
        <time>2022-12-08T09:52:21Z</time>
      </trkpt>
      <trkpt lat="48.83656" lon="2.19968">
        <ele>81.52</ele>
        <time>2022-12-08T09:52:28Z</time>
      </trkpt>
      <trkpt lat="48.83653" lon="2.19951">
        <ele>82.51</ele>
        <time>2022-12-08T09:52:37Z</time>
      </trkpt>
      <trkpt lat="48.83652" lon="2.1993">
        <ele>82.56</ele>
        <time>2022-12-08T09:52:47Z</time>
      </trkpt>
      <trkpt lat="48.83651" lon="2.19917">
        <ele>82.66</ele>
        <time>2022-12-08T09:52:53Z</time>
      </trkpt>
      <trkpt lat="48.83652" lon="2.19901">
        <ele>83.15</ele>
        <time>2022-12-08T09:53:03Z</time>
      </trkpt>
      <trkpt lat="48.83646" lon="2.19895">
        <ele>83.65</ele>
        <time>2022-12-08T09:53:09Z</time>
      </trkpt>
      <trkpt lat="48.83639" lon="2.19891">
        <ele>83.31</ele>
        <time>2022-12-08T09:53:15Z</time>
      </trkpt>
      <trkpt lat="48.83637" lon="2.1989">
        <ele>83.3</ele>
        <time>2022-12-08T09:53:17Z</time>
      </trkpt>
      <trkpt lat="48.83625" lon="2.19885">
        <ele>83.24</ele>
        <time>2022-12-08T09:53:27Z</time>
      </trkpt>
      <trkpt lat="48.83605" lon="2.19887">
        <ele>84.01</ele>
        <time>2022-12-08T09:53:41Z</time>
      </trkpt>
      <trkpt lat="48.83597" lon="2.19891">
        <ele>84.25</ele>
        <time>2022-12-08T09:53:46Z</time>
      </trkpt>
      <trkpt lat="48.83583" lon="2.19894">
        <ele>84.51</ele>
        <time>2022-12-08T09:53:56Z</time>
      </trkpt>
      <trkpt lat="48.83567" lon="2.19891">
        <ele>84.77</ele>
        <time>2022-12-08T09:54:10Z</time>
      </trkpt>
      <trkpt lat="48.83543" lon="2.19891">
        <ele>85.06</ele>
        <time>2022-12-08T09:54:27Z</time>
      </trkpt>
      <trkpt lat="48.83528" lon="2.1989">
        <ele>85.48</ele>
        <time>2022-12-08T09:54:38Z</time>
      </trkpt>
      <trkpt lat="48.83524" lon="2.19892">
        <ele>85.96</ele>
        <time>2022-12-08T09:54:41Z</time>
      </trkpt>
      <trkpt lat="48.83507" lon="2.19898">
        <ele>86.43</ele>
        <time>2022-12-08T09:54:51Z</time>
      </trkpt>
      <trkpt lat="48.8348" lon="2.19902">
        <ele>86.77</ele>
        <time>2022-12-08T09:55:07Z</time>
      </trkpt>
      <trkpt lat="48.83473" lon="2.19896">
        <ele>87.43</ele>
        <time>2022-12-08T09:55:15Z</time>
      </trkpt>
      <trkpt lat="48.83468" lon="2.19878">
        <ele>88.22</ele>
        <time>2022-12-08T09:55:28Z</time>
      </trkpt>
      <trkpt lat="48.83465" lon="2.19869">
        <ele>87.99</ele>
        <time>2022-12-08T09:55:33Z</time>
      </trkpt>
      <trkpt lat="48.83463" lon="2.19863">
        <ele>88.18</ele>
        <time>2022-12-08T09:55:36Z</time>
      </trkpt>
      <trkpt lat="48.83454" lon="2.19843">
        <ele>88.82</ele>
        <time>2022-12-08T09:55:49Z</time>
      </trkpt>
      <trkpt lat="48.83452" lon="2.19835">
        <ele>88.76</ele>
        <time>2022-12-08T09:55:51Z</time>
      </trkpt>
      <trkpt lat="48.83443" lon="2.1981">
        <ele>89.22</ele>
        <time>2022-12-08T09:56:07Z</time>
      </trkpt>
      <trkpt lat="48.83437" lon="2.19789">
        <ele>90</ele>
        <time>2022-12-08T09:56:21Z</time>
      </trkpt>
      <trkpt lat="48.83431" lon="2.1976">
        <ele>90.8</ele>
        <time>2022-12-08T09:56:36Z</time>
      </trkpt>
      <trkpt lat="48.83421" lon="2.19736">
        <ele>91.19</ele>
        <time>2022-12-08T09:56:53Z</time>
      </trkpt>
      <trkpt lat="48.8342" lon="2.19729">
        <ele>91.7</ele>
        <time>2022-12-08T09:56:55Z</time>
      </trkpt>
      <trkpt lat="48.83418" lon="2.19722">
        <ele>91.8</ele>
        <time>2022-12-08T09:56:57Z</time>
      </trkpt>
      <trkpt lat="48.83407" lon="2.19684">
        <ele>92.58</ele>
        <time>2022-12-08T09:57:13Z</time>
      </trkpt>
      <trkpt lat="48.83399" lon="2.19662">
        <ele>93.26</ele>
        <time>2022-12-08T09:57:25Z</time>
      </trkpt>
      <trkpt lat="48.83388" lon="2.19628">
        <ele>93.83</ele>
        <time>2022-12-08T09:57:43Z</time>
      </trkpt>
      <trkpt lat="48.83386" lon="2.19601">
        <ele>95.49</ele>
        <time>2022-12-08T09:57:59Z</time>
      </trkpt>
      <trkpt lat="48.83384" lon="2.19592">
        <ele>96.15</ele>
        <time>2022-12-08T09:58:04Z</time>
      </trkpt>
      <trkpt lat="48.83374" lon="2.19561">
        <ele>97.5</ele>
        <time>2022-12-08T09:58:22Z</time>
      </trkpt>
      <trkpt lat="48.83365" lon="2.19538">
        <ele>98.83</ele>
        <time>2022-12-08T09:58:37Z</time>
      </trkpt>
      <trkpt lat="48.83367" lon="2.1953">
        <ele>98.3</ele>
        <time>2022-12-08T09:58:54Z</time>
      </trkpt>
      <trkpt lat="48.83366" lon="2.19529">
        <ele>98.58</ele>
        <time>2022-12-08T09:58:58Z</time>
      </trkpt>
      <trkpt lat="48.8336" lon="2.1952">
        <ele>98.82</ele>
        <time>2022-12-08T09:59:19Z</time>
      </trkpt>
      <trkpt lat="48.83358" lon="2.19521">
        <ele>98.64</ele>
        <time>2022-12-08T09:59:36Z</time>
      </trkpt>
      <trkpt lat="48.8336" lon="2.19521">
        <ele>98.61</ele>
        <time>2022-12-08T09:59:54Z</time>
      </trkpt>
      <trkpt lat="48.8336" lon="2.19508">
        <ele>98.81</ele>
        <time>2022-12-08T10:00:08Z</time>
      </trkpt>
      <trkpt lat="48.83359" lon="2.19488">
        <ele>99.09</ele>
        <time>2022-12-08T10:00:24Z</time>
      </trkpt>
      <trkpt lat="48.83362" lon="2.1948">
        <ele>99.05</ele>
        <time>2022-12-08T10:00:29Z</time>
      </trkpt>
      <trkpt lat="48.83364" lon="2.19475">
        <ele>98.81</ele>
        <time>2022-12-08T10:00:32Z</time>
      </trkpt>
      <trkpt lat="48.83365" lon="2.19463">
        <ele>98.96</ele>
        <time>2022-12-08T10:00:43Z</time>
      </trkpt>
      <trkpt lat="48.83364" lon="2.19476">
        <ele>98.72</ele>
        <time>2022-12-08T10:01:01Z</time>
      </trkpt>
      <trkpt lat="48.8336" lon="2.19483">
        <ele>98.76</ele>
        <time>2022-12-08T10:01:09Z</time>
      </trkpt>
      <trkpt lat="48.83357" lon="2.19488">
        <ele>98.93</ele>
        <time>2022-12-08T10:01:20Z</time>
      </trkpt>
      <trkpt lat="48.83361" lon="2.19487">
        <ele>98.33</ele>
        <time>2022-12-08T10:01:32Z</time>
      </trkpt>
      <trkpt lat="48.83364" lon="2.19482">
        <ele>98.98</ele>
        <time>2022-12-08T10:01:36Z</time>
      </trkpt>
      <trkpt lat="48.83369" lon="2.19477">
        <ele>98.84</ele>
        <time>2022-12-08T10:01:40Z</time>
      </trkpt>
      <trkpt lat="48.83372" lon="2.19461">
        <ele>98.24</ele>
        <time>2022-12-08T10:01:50Z</time>
      </trkpt>
      <trkpt lat="48.83369" lon="2.19445">
        <ele>98.75</ele>
        <time>2022-12-08T10:02:02Z</time>
      </trkpt>
      <trkpt lat="48.83375" lon="2.19416">
        <ele>99.58</ele>
        <time>2022-12-08T10:02:17Z</time>
      </trkpt>
      <trkpt lat="48.83378" lon="2.19393">
        <ele>100.58</ele>
        <time>2022-12-08T10:02:31Z</time>
      </trkpt>
      <trkpt lat="48.83382" lon="2.19356">
        <ele>101.01</ele>
        <time>2022-12-08T10:02:47Z</time>
      </trkpt>
      <trkpt lat="48.83387" lon="2.19326">
        <ele>101.79</ele>
        <time>2022-12-08T10:03:02Z</time>
      </trkpt>
      <trkpt lat="48.83389" lon="2.19292">
        <ele>103.18</ele>
        <time>2022-12-08T10:03:18Z</time>
      </trkpt>
      <trkpt lat="48.8339" lon="2.19265">
        <ele>104.41</ele>
        <time>2022-12-08T10:03:32Z</time>
      </trkpt>
      <trkpt lat="48.83394" lon="2.19229">
        <ele>105.18</ele>
        <time>2022-12-08T10:03:48Z</time>
      </trkpt>
      <trkpt lat="48.83394" lon="2.1919">
        <ele>106.81</ele>
        <time>2022-12-08T10:04:04Z</time>
      </trkpt>
      <trkpt lat="48.83401" lon="2.19164">
        <ele>106.85</ele>
        <time>2022-12-08T10:04:18Z</time>
      </trkpt>
      <trkpt lat="48.8341" lon="2.19161">
        <ele>106.09</ele>
        <time>2022-12-08T10:04:30Z</time>
      </trkpt>
      <trkpt lat="48.83429" lon="2.19153">
        <ele>105.07</ele>
        <time>2022-12-08T10:04:47Z</time>
      </trkpt>
      <trkpt lat="48.83444" lon="2.19152">
        <ele>103.71</ele>
        <time>2022-12-08T10:05:01Z</time>
      </trkpt>
      <trkpt lat="48.83447" lon="2.19152">
        <ele>103.84</ele>
        <time>2022-12-08T10:05:05Z</time>
      </trkpt>
      <trkpt lat="48.83459" lon="2.19157">
        <ele>103.72</ele>
        <time>2022-12-08T10:05:31Z</time>
      </trkpt>
      <trkpt lat="48.83464" lon="2.19155">
        <ele>102.45</ele>
        <time>2022-12-08T10:05:38Z</time>
      </trkpt>
      <trkpt lat="48.83471" lon="2.19153">
        <ele>102.68</ele>
        <time>2022-12-08T10:05:45Z</time>
      </trkpt>
      <trkpt lat="48.83477" lon="2.19152">
        <ele>102.39</ele>
        <time>2022-12-08T10:05:48Z</time>
      </trkpt>
      <trkpt lat="48.83484" lon="2.1915">
        <ele>101.73</ele>
        <time>2022-12-08T10:05:53Z</time>
      </trkpt>
      <trkpt lat="48.83508" lon="2.19143">
        <ele>100.28</ele>
        <time>2022-12-08T10:06:10Z</time>
      </trkpt>
      <trkpt lat="48.83517" lon="2.19142">
        <ele>99.98</ele>
        <time>2022-12-08T10:06:17Z</time>
      </trkpt>
      <trkpt lat="48.8352" lon="2.19142">
        <ele>99.62</ele>
        <time>2022-12-08T10:06:19Z</time>
      </trkpt>
      <trkpt lat="48.83542" lon="2.1914">
        <ele>98.51</ele>
        <time>2022-12-08T10:06:33Z</time>
      </trkpt>
      <trkpt lat="48.83543" lon="2.1914">
        <ele>98.35</ele>
        <time>2022-12-08T10:06:34Z</time>
      </trkpt>
      <trkpt lat="48.83559" lon="2.19134">
        <ele>97.8</ele>
        <time>2022-12-08T10:06:48Z</time>
      </trkpt>
      <trkpt lat="48.83567" lon="2.19137">
        <ele>97.43</ele>
        <time>2022-12-08T10:07:04Z</time>
      </trkpt>
      <trkpt lat="48.83574" lon="2.19132">
        <ele>97.38</ele>
        <time>2022-12-08T10:07:12Z</time>
      </trkpt>
      <trkpt lat="48.83589" lon="2.19118">
        <ele>96.5</ele>
        <time>2022-12-08T10:07:27Z</time>
      </trkpt>
      <trkpt lat="48.83601" lon="2.19107">
        <ele>96.34</ele>
        <time>2022-12-08T10:07:36Z</time>
      </trkpt>
      <trkpt lat="48.83613" lon="2.19097">
        <ele>96.47</ele>
        <time>2022-12-08T10:07:50Z</time>
      </trkpt>
      <trkpt lat="48.83619" lon="2.19089">
        <ele>96.02</ele>
        <time>2022-12-08T10:08:05Z</time>
      </trkpt>
      <trkpt lat="48.83627" lon="2.19075">
        <ele>95.96</ele>
        <time>2022-12-08T10:08:20Z</time>
      </trkpt>
      <trkpt lat="48.83627" lon="2.19075">
        <ele>96.27</ele>
        <time>2022-12-08T10:08:21Z</time>
      </trkpt>
      <trkpt lat="48.83629" lon="2.1907">
        <ele>96.23</ele>
        <time>2022-12-08T10:08:24Z</time>
      </trkpt>
      <trkpt lat="48.83632" lon="2.19061">
        <ele>95.77</ele>
        <time>2022-12-08T10:08:29Z</time>
      </trkpt>
      <trkpt lat="48.83635" lon="2.1905">
        <ele>95.56</ele>
        <time>2022-12-08T10:08:34Z</time>
      </trkpt>
      <trkpt lat="48.83639" lon="2.19041">
        <ele>95.7</ele>
        <time>2022-12-08T10:08:39Z</time>
      </trkpt>
      <trkpt lat="48.8364" lon="2.19037">
        <ele>95.35</ele>
        <time>2022-12-08T10:08:41Z</time>
      </trkpt>
      <trkpt lat="48.83642" lon="2.19034">
        <ele>94.79</ele>
        <time>2022-12-08T10:08:43Z</time>
      </trkpt>
      <trkpt lat="48.83647" lon="2.19017">
        <ele>94.94</ele>
        <time>2022-12-08T10:08:52Z</time>
      </trkpt>
      <trkpt lat="48.83649" lon="2.19014">
        <ele>94.65</ele>
        <time>2022-12-08T10:08:54Z</time>
      </trkpt>
      <trkpt lat="48.83652" lon="2.19">
        <ele>94.39</ele>
        <time>2022-12-08T10:09:02Z</time>
      </trkpt>
      <trkpt lat="48.83653" lon="2.18996">
        <ele>94.89</ele>
        <time>2022-12-08T10:09:04Z</time>
      </trkpt>
      <trkpt lat="48.83657" lon="2.18983">
        <ele>94.02</ele>
        <time>2022-12-08T10:09:10Z</time>
      </trkpt>
      <trkpt lat="48.83659" lon="2.18973">
        <ele>93.99</ele>
        <time>2022-12-08T10:09:14Z</time>
      </trkpt>
      <trkpt lat="48.8366" lon="2.18965">
        <ele>94.03</ele>
        <time>2022-12-08T10:09:18Z</time>
      </trkpt>
      <trkpt lat="48.83663" lon="2.18943">
        <ele>94.38</ele>
        <time>2022-12-08T10:09:30Z</time>
      </trkpt>
      <trkpt lat="48.83666" lon="2.18916">
        <ele>91.94</ele>
        <time>2022-12-08T10:09:44Z</time>
      </trkpt>
      <trkpt lat="48.83668" lon="2.18886">
        <ele>90.78</ele>
        <time>2022-12-08T10:10:00Z</time>
      </trkpt>
      <trkpt lat="48.8367" lon="2.18873">
        <ele>90.35</ele>
        <time>2022-12-08T10:10:07Z</time>
      </trkpt>
      <trkpt lat="48.83669" lon="2.18867">
        <ele>90.14</ele>
        <time>2022-12-08T10:10:09Z</time>
      </trkpt>
      <trkpt lat="48.83669" lon="2.18835">
        <ele>88.7</ele>
        <time>2022-12-08T10:10:23Z</time>
      </trkpt>
      <trkpt lat="48.83668" lon="2.18823">
        <ele>88.77</ele>
        <time>2022-12-08T10:10:31Z</time>
      </trkpt>
      <trkpt lat="48.83665" lon="2.18802">
        <ele>87.47</ele>
        <time>2022-12-08T10:10:39Z</time>
      </trkpt>
      <trkpt lat="48.83664" lon="2.1879">
        <ele>87.41</ele>
        <time>2022-12-08T10:10:44Z</time>
      </trkpt>
      <trkpt lat="48.83663" lon="2.18773">
        <ele>86.55</ele>
        <time>2022-12-08T10:10:52Z</time>
      </trkpt>
      <trkpt lat="48.83662" lon="2.18758">
        <ele>86.4</ele>
        <time>2022-12-08T10:10:59Z</time>
      </trkpt>
      <trkpt lat="48.83663" lon="2.1875">
        <ele>86.55</ele>
        <time>2022-12-08T10:11:02Z</time>
      </trkpt>
      <trkpt lat="48.83664" lon="2.18739">
        <ele>86.08</ele>
        <time>2022-12-08T10:11:07Z</time>
      </trkpt>
      <trkpt lat="48.83664" lon="2.18718">
        <ele>86.61</ele>
        <time>2022-12-08T10:11:17Z</time>
      </trkpt>
      <trkpt lat="48.83664" lon="2.18698">
        <ele>86.28</ele>
        <time>2022-12-08T10:11:25Z</time>
      </trkpt>
      <trkpt lat="48.83665" lon="2.18678">
        <ele>85.92</ele>
        <time>2022-12-08T10:11:34Z</time>
      </trkpt>
      <trkpt lat="48.83666" lon="2.18666">
        <ele>85.34</ele>
        <time>2022-12-08T10:11:40Z</time>
      </trkpt>
      <trkpt lat="48.83665" lon="2.18654">
        <ele>85.39</ele>
        <time>2022-12-08T10:11:44Z</time>
      </trkpt>
      <trkpt lat="48.83659" lon="2.18638">
        <ele>86.03</ele>
        <time>2022-12-08T10:11:53Z</time>
      </trkpt>
      <trkpt lat="48.83643" lon="2.18633">
        <ele>86.04</ele>
        <time>2022-12-08T10:12:04Z</time>
      </trkpt>
      <trkpt lat="48.8363" lon="2.18631">
        <ele>86.13</ele>
        <time>2022-12-08T10:12:13Z</time>
      </trkpt>
      <trkpt lat="48.83625" lon="2.1863">
        <ele>86.46</ele>
        <time>2022-12-08T10:12:17Z</time>
      </trkpt>
      <trkpt lat="48.8362" lon="2.18627">
        <ele>86.21</ele>
        <time>2022-12-08T10:12:21Z</time>
      </trkpt>
      <trkpt lat="48.83607" lon="2.1862">
        <ele>87.18</ele>
        <time>2022-12-08T10:12:31Z</time>
      </trkpt>
      <trkpt lat="48.83606" lon="2.1862">
        <ele>86.92</ele>
        <time>2022-12-08T10:12:32Z</time>
      </trkpt>
      <trkpt lat="48.836" lon="2.18618">
        <ele>87.43</ele>
        <time>2022-12-08T10:12:37Z</time>
      </trkpt>
      <trkpt lat="48.83589" lon="2.18613">
        <ele>87.6</ele>
        <time>2022-12-08T10:12:45Z</time>
      </trkpt>
      <trkpt lat="48.83574" lon="2.18608">
        <ele>89.15</ele>
        <time>2022-12-08T10:12:56Z</time>
      </trkpt>
      <trkpt lat="48.83567" lon="2.18606">
        <ele>89.67</ele>
        <time>2022-12-08T10:13:02Z</time>
      </trkpt>
      <trkpt lat="48.83557" lon="2.18594">
        <ele>90.24</ele>
        <time>2022-12-08T10:13:12Z</time>
      </trkpt>
      <trkpt lat="48.83555" lon="2.18588">
        <ele>90.75</ele>
        <time>2022-12-08T10:13:15Z</time>
      </trkpt>
      <trkpt lat="48.83547" lon="2.18573">
        <ele>91.62</ele>
        <time>2022-12-08T10:13:26Z</time>
      </trkpt>
      <trkpt lat="48.8354" lon="2.18559">
        <ele>92.92</ele>
        <time>2022-12-08T10:13:37Z</time>
      </trkpt>
      <trkpt lat="48.83534" lon="2.18532">
        <ele>94.66</ele>
        <time>2022-12-08T10:13:53Z</time>
      </trkpt>
      <trkpt lat="48.83532" lon="2.18511">
        <ele>95.48</ele>
        <time>2022-12-08T10:14:04Z</time>
      </trkpt>
      <trkpt lat="48.8353" lon="2.18501">
        <ele>94.89</ele>
        <time>2022-12-08T10:14:19Z</time>
      </trkpt>
      <trkpt lat="48.83527" lon="2.18499">
        <ele>95.22</ele>
        <time>2022-12-08T10:14:37Z</time>
      </trkpt>
      <trkpt lat="48.83523" lon="2.18498">
        <ele>95.66</ele>
        <time>2022-12-08T10:14:52Z</time>
      </trkpt>
      <trkpt lat="48.83517" lon="2.18492">
        <ele>96.26</ele>
        <time>2022-12-08T10:15:09Z</time>
      </trkpt>
      <trkpt lat="48.83523" lon="2.18493">
        <ele>96.15</ele>
        <time>2022-12-08T10:15:23Z</time>
      </trkpt>
      <trkpt lat="48.83523" lon="2.18494">
        <ele>96.23</ele>
        <time>2022-12-08T10:15:36Z</time>
      </trkpt>
      <trkpt lat="48.83526" lon="2.18501">
        <ele>95.39</ele>
        <time>2022-12-08T10:15:42Z</time>
      </trkpt>
      <trkpt lat="48.83534" lon="2.18516">
        <ele>94.8</ele>
        <time>2022-12-08T10:15:57Z</time>
      </trkpt>
      <trkpt lat="48.83545" lon="2.18524">
        <ele>94.02</ele>
        <time>2022-12-08T10:16:09Z</time>
      </trkpt>
      <trkpt lat="48.83556" lon="2.18522">
        <ele>93.3</ele>
        <time>2022-12-08T10:16:17Z</time>
      </trkpt>
      <trkpt lat="48.83558" lon="2.18521">
        <ele>93.64</ele>
        <time>2022-12-08T10:16:21Z</time>
      </trkpt>
      <trkpt lat="48.83563" lon="2.18522">
        <ele>93.66</ele>
        <time>2022-12-08T10:16:25Z</time>
      </trkpt>
      <trkpt lat="48.83576" lon="2.1852">
        <ele>93.45</ele>
        <time>2022-12-08T10:16:38Z</time>
      </trkpt>
      <trkpt lat="48.83587" lon="2.18519">
        <ele>93.6</ele>
        <time>2022-12-08T10:16:53Z</time>
      </trkpt>
      <trkpt lat="48.83605" lon="2.18516">
        <ele>94.04</ele>
        <time>2022-12-08T10:17:05Z</time>
      </trkpt>
      <trkpt lat="48.83607" lon="2.18516">
        <ele>93.81</ele>
        <time>2022-12-08T10:17:07Z</time>
      </trkpt>
      <trkpt lat="48.83611" lon="2.18515">
        <ele>94.04</ele>
        <time>2022-12-08T10:17:10Z</time>
      </trkpt>
      <trkpt lat="48.83634" lon="2.18508">
        <ele>94.49</ele>
        <time>2022-12-08T10:17:22Z</time>
      </trkpt>
    </trkseg>
  </trk>
</gpx>